sensor_id;sensor_type;location;lat;lon;timestamp;pressure;altitude;pressure_sealevel;temperature;humidity
56594;BME280;42474;51.660;5.824;2023-02-15T00:03:18;102890.0;;;2.4;79.5
56594;BME280;42474;51.660;5.824;2023-02-15T00:08:18;102900.0;;;2.3;79.5
56594;BME280;42474;51.660;5.824;2023-02-15T00:13:18;102890.0;;;2.1;79.0
56594;BME280;42474;51.660;5.824;2023-02-15T00:18:18;102890.0;;;2.0;79.5
56594;BME280;42474;51.660;5.824;2023-02-15T00:23:18;102900.0;;;1.9;79.5
56594;BME280;42474;51.660;5.824;2023-02-15T00:28:18;102890.0;;;1.9;80.0
56594;BME280;42474;51.660;5.824;2023-02-15T00:33:18;102880.0;;;1.9;80.0
56594;BME280;42474;51.660;5.824;2023-02-15T00:38:18;102880.0;;;1.9;80.0
56594;BME280;42474;51.660;5.824;2023-02-15T00:43:18;102870.0;;;1.8;80.0
56594;BME280;42474;51.660;5.824;2023-02-15T00:48:18;102870.0;;;1.8;80.5
56594;BME280;42474;51.660;5.824;2023-02-15T00:53:18;102860.0;;;1.9;80.5
56594;BME280;42474;51.660;5.824;2023-02-15T00:58:18;102860.0;;;1.9;80.5
56594;BME280;42474;51.660;5.824;2023-02-15T01:03:19;102850.0;;;1.9;80.5
56594;BME280;42474;51.660;5.824;2023-02-15T01:08:18;102850.0;;;1.9;80.5
56594;BME280;42474;51.660;5.824;2023-02-15T01:13:18;102850.0;;;1.8;80.5
56594;BME280;42474;51.660;5.824;2023-02-15T01:18:18;102840.0;;;1.8;80.5
56594;BME280;42474;51.660;5.824;2023-02-15T01:23:18;102830.0;;;1.8;80.5
56594;BME280;42474;51.660;5.824;2023-02-15T01:28:18;102830.0;;;1.8;80.5
56594;BME280;42474;51.660;5.824;2023-02-15T01:33:18;102820.0;;;1.8;80.5
56594;BME280;42474;51.660;5.824;2023-02-15T01:38:18;102820.0;;;1.7;80.5
56594;BME280;42474;51.660;5.824;2023-02-15T01:48:27;102820.0;;;1.7;80.5
56594;BME280;42474;51.660;5.824;2023-02-15T01:53:21;102820.0;;;1.6;81.0
56594;BME280;42474;51.660;5.824;2023-02-15T01:58:18;102810.0;;;1.6;81.0
56594;BME280;42474;51.660;5.824;2023-02-15T02:03:20;102810.0;;;1.6;81.0
56594;BME280;42474;51.660;5.824;2023-02-15T02:08:18;102800.0;;;1.6;81.0
56594;BME280;42474;51.660;5.824;2023-02-15T02:13:18;102800.0;;;1.6;81.0
56594;BME280;42474;51.660;5.824;2023-02-15T02:19:11;102810.0;;;1.6;81.0
56594;BME280;42474;51.660;5.824;2023-02-15T02:26:01;102800.0;;;1.6;81.0
56594;BME280;42474;51.660;5.824;2023-02-15T02:33:11;102790.0;;;1.5;81.5
56594;BME280;42474;51.660;5.824;2023-02-15T02:37:30;102790.0;;;1.5;81.5
56594;BME280;42474;51.660;5.824;2023-02-15T02:42:40;102790.0;;;1.5;81.5
56594;BME280;42474;51.660;5.824;2023-02-15T02:46:32;102780.0;;;1.5;81.5
56594;BME280;42474;51.660;5.824;2023-02-15T02:48:40;102780.0;;;1.5;82.0
56594;BME280;42474;51.660;5.824;2023-02-15T02:53:18;102780.0;;;1.4;82.0
56594;BME280;42474;51.660;5.824;2023-02-15T02:58:24;102780.0;;;1.4;82.0
56594;BME280;42474;51.660;5.824;2023-02-15T03:03:25;102760.0;;;1.4;82.0
56594;BME280;42474;51.660;5.824;2023-02-15T03:08:23;102750.0;;;1.3;81.5
56594;BME280;42474;51.660;5.824;2023-02-15T03:13:18;102750.0;;;1.3;82.0
56594;BME280;42474;51.660;5.824;2023-02-15T03:18:20;102750.0;;;1.3;82.0
56594;BME280;42474;51.660;5.824;2023-02-15T03:23:20;102740.0;;;1.2;82.0
56594;BME280;42474;51.660;5.824;2023-02-15T03:28:21;102740.0;;;1.2;82.0
56594;BME280;42474;51.660;5.824;2023-02-15T03:33:19;102740.0;;;1.2;82.0
56594;BME280;42474;51.660;5.824;2023-02-15T03:38:25;102740.0;;;1.2;82.0
56594;BME280;42474;51.660;5.824;2023-02-15T03:43:27;102730.0;;;1.2;82.0
56594;BME280;42474;51.660;5.824;2023-02-15T03:48:20;102720.0;;;1.2;82.0
56594;BME280;42474;51.660;5.824;2023-02-15T03:53:20;102720.0;;;1.1;82.0
56594;BME280;42474;51.660;5.824;2023-02-15T03:58:18;102720.0;;;1.0;82.0
56594;BME280;42474;51.660;5.824;2023-02-15T04:03:39;102710.0;;;1.0;82.0
56594;BME280;42474;51.660;5.824;2023-02-15T04:08:18;102700.0;;;1.0;82.5
56594;BME280;42474;51.660;5.824;2023-02-15T04:13:18;102700.0;;;0.9;82.5
56594;BME280;42474;51.660;5.824;2023-02-15T04:18:18;102700.0;;;0.9;82.5
56594;BME280;42474;51.660;5.824;2023-02-15T04:23:18;102720.0;;;0.8;82.5
56594;BME280;42474;51.660;5.824;2023-02-15T04:28:18;102720.0;;;0.7;82.5
56594;BME280;42474;51.660;5.824;2023-02-15T04:33:18;102710.0;;;0.7;82.5
56594;BME280;42474;51.660;5.824;2023-02-15T04:38:18;102710.0;;;0.6;82.5
56594;BME280;42474;51.660;5.824;2023-02-15T04:43:18;102710.0;;;0.7;83.0
56594;BME280;42474;51.660;5.824;2023-02-15T04:48:18;102720.0;;;0.7;82.5
56594;BME280;42474;51.660;5.824;2023-02-15T04:53:18;102710.0;;;0.7;83.0
56594;BME280;42474;51.660;5.824;2023-02-15T04:58:18;102710.0;;;0.7;83.0
56594;BME280;42474;51.660;5.824;2023-02-15T05:03:18;102700.0;;;0.6;83.0
56594;BME280;42474;51.660;5.824;2023-02-15T05:08:18;102700.0;;;0.6;82.5
56594;BME280;42474;51.660;5.824;2023-02-15T05:13:18;102690.0;;;0.6;83.0
56594;BME280;42474;51.660;5.824;2023-02-15T05:18:19;102690.0;;;0.6;83.0
56594;BME280;42474;51.660;5.824;2023-02-15T05:23:18;102690.0;;;0.6;83.0
56594;BME280;42474;51.660;5.824;2023-02-15T05:28:18;102680.0;;;0.6;83.0
56594;BME280;42474;51.660;5.824;2023-02-15T05:33:18;102680.0;;;0.6;83.0
56594;BME280;42474;51.660;5.824;2023-02-15T05:38:18;102680.0;;;0.6;83.0
56594;BME280;42474;51.660;5.824;2023-02-15T05:43:18;102670.0;;;0.6;83.0
56594;BME280;42474;51.660;5.824;2023-02-15T05:48:21;102660.0;;;0.6;83.0
56594;BME280;42474;51.660;5.824;2023-02-15T05:53:18;102670.0;;;0.7;83.5
56594;BME280;42474;51.660;5.824;2023-02-15T05:58:18;102670.0;;;0.7;83.5
56594;BME280;42474;51.660;5.824;2023-02-15T06:03:18;102670.0;;;0.6;83.5
56594;BME280;42474;51.660;5.824;2023-02-15T06:08:18;102680.0;;;0.6;83.5
56594;BME280;42474;51.660;5.824;2023-02-15T06:13:18;102680.0;;;0.5;83.5
56594;BME280;42474;51.660;5.824;2023-02-15T06:18:18;102700.0;;;0.5;83.5
56594;BME280;42474;51.660;5.824;2023-02-15T06:23:18;102690.0;;;0.4;83.5
56594;BME280;42474;51.660;5.824;2023-02-15T06:28:18;102690.0;;;0.4;83.5
56594;BME280;42474;51.660;5.824;2023-02-15T06:33:18;102690.0;;;0.4;84.0
56594;BME280;42474;51.660;5.824;2023-02-15T06:38:18;102690.0;;;0.3;84.0
56594;BME280;42474;51.660;5.824;2023-02-15T06:43:18;102690.0;;;0.2;84.0
56594;BME280;42474;51.660;5.824;2023-02-15T06:48:18;102680.0;;;0.2;84.0
56594;BME280;42474;51.660;5.824;2023-02-15T06:53:18;102680.0;;;0.3;83.5
56594;BME280;42474;51.660;5.824;2023-02-15T06:58:18;102690.0;;;0.2;83.5
56594;BME280;42474;51.660;5.824;2023-02-15T07:03:18;102680.0;;;0.2;83.5
56594;BME280;42474;51.660;5.824;2023-02-15T07:08:18;102680.0;;;0.3;83.5
56594;BME280;42474;51.660;5.824;2023-02-15T07:13:18;102680.0;;;0.3;83.5
56594;BME280;42474;51.660;5.824;2023-02-15T07:18:18;102660.0;;;0.3;83.5
56594;BME280;42474;51.660;5.824;2023-02-15T07:28:18;102660.0;;;0.5;83.5
56594;BME280;42474;51.660;5.824;2023-02-15T07:33:18;102660.0;;;0.5;83.5
56594;BME280;42474;51.660;5.824;2023-02-15T07:38:18;102650.0;;;0.7;84.0
56594;BME280;42474;51.660;5.824;2023-02-15T07:43:18;102650.0;;;0.8;84.0
56594;BME280;42474;51.660;5.824;2023-02-15T07:48:18;102650.0;;;1.0;84.0
56594;BME280;42474;51.660;5.824;2023-02-15T07:53:18;102640.0;;;1.1;84.5
56594;BME280;42474;51.660;5.824;2023-02-15T07:58:18;102650.0;;;1.3;85.0
56594;BME280;42474;51.660;5.824;2023-02-15T08:03:18;102650.0;;;1.4;85.0
56594;BME280;42474;51.660;5.824;2023-02-15T08:08:18;102640.0;;;1.6;85.0
56594;BME280;42474;51.660;5.824;2023-02-15T08:13:18;102640.0;;;1.7;84.5
56594;BME280;42474;51.660;5.824;2023-02-15T08:18:18;102630.0;;;1.8;85.0
56594;BME280;42474;51.660;5.824;2023-02-15T08:23:18;102620.0;;;2.0;85.0
56594;BME280;42474;51.660;5.824;2023-02-15T08:28:18;102620.0;;;2.1;85.5
56594;BME280;42474;51.660;5.824;2023-02-15T08:33:18;102610.0;;;2.3;85.0
56594;BME280;42474;51.660;5.824;2023-02-15T08:38:18;102610.0;;;2.4;85.5
56594;BME280;42474;51.660;5.824;2023-02-15T08:43:18;102610.0;;;2.6;85.5
56594;BME280;42474;51.660;5.824;2023-02-15T08:58:18;102600.0;;;3.1;86.5
56594;BME280;42474;51.660;5.824;2023-02-15T09:03:18;102600.0;;;3.3;87.0
56594;BME280;42474;51.660;5.824;2023-02-15T09:08:18;102600.0;;;3.5;86.0
56594;BME280;42474;51.660;5.824;2023-02-15T09:13:18;102590.0;;;3.8;86.0
56594;BME280;42474;51.660;5.824;2023-02-15T09:18:18;102600.0;;;4.0;86.0
56594;BME280;42474;51.660;5.824;2023-02-15T09:23:18;102590.0;;;4.3;86.0
56594;BME280;42474;51.660;5.824;2023-02-15T09:28:18;102590.0;;;4.6;86.0
56594;BME280;42474;51.660;5.824;2023-02-15T09:33:18;102580.0;;;4.8;85.5
56594;BME280;42474;51.660;5.824;2023-02-15T09:38:18;102580.0;;;5.0;85.5
56594;BME280;42474;51.660;5.824;2023-02-15T09:44:10;102580.0;;;5.3;85.0
56594;BME280;42474;51.660;5.824;2023-02-15T09:49:48;102580.0;;;5.5;85.0
56594;BME280;42474;51.660;5.824;2023-02-15T09:55:38;102560.0;;;5.7;84.5
56594;BME280;42474;51.660;5.824;2023-02-15T10:01:17;102550.0;;;6.0;84.5
56594;BME280;42474;51.660;5.824;2023-02-15T10:07:13;102560.0;;;6.2;84.5
56594;BME280;42474;51.660;5.824;2023-02-15T10:13:31;102560.0;;;6.6;84.0
56594;BME280;42474;51.660;5.824;2023-02-15T10:19:58;102560.0;;;6.9;83.5
56594;BME280;42474;51.660;5.824;2023-02-15T10:25:53;102560.0;;;7.1;83.5
56594;BME280;42474;51.660;5.824;2023-02-15T10:27:41;102550.0;;;7.4;83.0
56594;BME280;42474;51.660;5.824;2023-02-15T10:28:23;102550.0;;;7.7;82.5
56594;BME280;42474;51.660;5.824;2023-02-15T10:33:25;102550.0;;;7.9;82.0
56594;BME280;42474;51.660;5.824;2023-02-15T10:38:52;102560.0;;;8.2;82.0
56594;BME280;42474;51.660;5.824;2023-02-15T10:45:19;102550.0;;;8.5;81.0
56594;BME280;42474;51.660;5.824;2023-02-15T10:50:54;102550.0;;;8.7;80.5
56594;BME280;42474;51.660;5.824;2023-02-15T10:56:03;102550.0;;;8.9;80.0
56594;BME280;42474;51.660;5.824;2023-02-15T11:01:22;102540.0;;;9.1;79.5
56594;BME280;42474;51.660;5.824;2023-02-15T11:06:22;102550.0;;;9.4;79.5
56594;BME280;42474;51.660;5.824;2023-02-15T11:08:18;102540.0;;;9.6;78.0
56594;BME280;42474;51.660;5.824;2023-02-15T11:13:19;102530.0;;;9.9;77.5
56594;BME280;42474;51.660;5.824;2023-02-15T11:18:21;102520.0;;;10.1;76.5
56594;BME280;42474;51.660;5.824;2023-02-15T11:23:19;102520.0;;;10.4;76.5
56594;BME280;42474;51.660;5.824;2023-02-15T11:28:27;102510.0;;;10.6;75.5
56594;BME280;42474;51.660;5.824;2023-02-15T11:33:22;102510.0;;;10.9;74.5
56594;BME280;42474;51.660;5.824;2023-02-15T11:38:21;102510.0;;;11.1;74.5
56594;BME280;42474;51.660;5.824;2023-02-15T11:43:26;102500.0;;;11.4;74.0
56594;BME280;42474;51.660;5.824;2023-02-15T11:48:18;102490.0;;;11.6;73.5
56594;BME280;42474;51.660;5.824;2023-02-15T11:53:20;102480.0;;;11.9;72.5
56594;BME280;42474;51.660;5.824;2023-02-15T11:58:40;102470.0;;;12.0;72.0
56594;BME280;42474;51.660;5.824;2023-02-15T12:03:36;102470.0;;;12.2;71.5
56594;BME280;42474;51.660;5.824;2023-02-15T12:08:19;102460.0;;;12.5;70.5
56594;BME280;42474;51.660;5.824;2023-02-15T12:13:20;102450.0;;;12.7;70.0
56594;BME280;42474;51.660;5.824;2023-02-15T12:18:25;102430.0;;;13.0;69.5
56594;BME280;42474;51.660;5.824;2023-02-15T12:23:19;102430.0;;;13.2;69.0
56594;BME280;42474;51.660;5.824;2023-02-15T12:28:26;102420.0;;;13.3;67.0
56594;BME280;42474;51.660;5.824;2023-02-15T12:33:23;102410.0;;;13.5;67.5
56594;BME280;42474;51.660;5.824;2023-02-15T12:38:28;102420.0;;;13.7;67.0
56594;BME280;42474;51.660;5.824;2023-02-15T12:43:25;102420.0;;;14.0;66.0
56594;BME280;42474;51.660;5.824;2023-02-15T12:48:21;102420.0;;;14.1;65.0
56594;BME280;42474;51.660;5.824;2023-02-15T12:53:35;102410.0;;;14.1;64.5
56594;BME280;42474;51.660;5.824;2023-02-15T12:58:23;102400.0;;;14.3;64.5
56594;BME280;42474;51.660;5.824;2023-02-15T13:03:23;102400.0;;;14.4;64.0
56594;BME280;42474;51.660;5.824;2023-02-15T13:08:20;102390.0;;;14.5;63.5
56594;BME280;42474;51.660;5.824;2023-02-15T13:13:20;102390.0;;;14.5;63.5
56594;BME280;42474;51.660;5.824;2023-02-15T13:18:23;102380.0;;;14.5;62.5
56594;BME280;42474;51.660;5.824;2023-02-15T13:23:31;102370.0;;;14.6;62.5
56594;BME280;42474;51.660;5.824;2023-02-15T13:28:20;102370.0;;;14.6;62.0
56594;BME280;42474;51.660;5.824;2023-02-15T13:33:31;102370.0;;;14.7;60.5
56594;BME280;42474;51.660;5.824;2023-02-15T13:39:01;102360.0;;;14.7;61.0
56594;BME280;42474;51.660;5.824;2023-02-15T13:43:49;102350.0;;;14.8;61.0
56594;BME280;42474;51.660;5.824;2023-02-15T13:49:47;102340.0;;;14.8;60.5
56594;BME280;42474;51.660;5.824;2023-02-15T13:55:26;102330.0;;;14.8;60.5
56594;BME280;42474;51.660;5.824;2023-02-15T14:01:08;102330.0;;;14.9;60.5
56594;BME280;42474;51.660;5.824;2023-02-15T14:07:20;102320.0;;;14.9;60.5
56594;BME280;42474;51.660;5.824;2023-02-15T14:12:58;102330.0;;;14.9;60.5
56594;BME280;42474;51.660;5.824;2023-02-15T14:18:20;102330.0;;;14.8;60.0
56594;BME280;42474;51.660;5.824;2023-02-15T14:22:36;102330.0;;;14.8;60.0
56594;BME280;42474;51.660;5.824;2023-02-15T14:27:40;102340.0;;;14.8;60.0
56594;BME280;42474;51.660;5.824;2023-02-15T14:30:54;102330.0;;;14.7;60.5
56594;BME280;42474;51.660;5.824;2023-02-15T14:33:33;102330.0;;;14.7;60.5
56594;BME280;42474;51.660;5.824;2023-02-15T14:38:51;102330.0;;;14.7;60.5
56594;BME280;42474;51.660;5.824;2023-02-15T14:44:08;102330.0;;;14.7;60.5
56594;BME280;42474;51.660;5.824;2023-02-15T14:48:30;102330.0;;;14.6;60.5
56594;BME280;42474;51.660;5.824;2023-02-15T14:53:38;102330.0;;;14.6;60.5
56594;BME280;42474;51.660;5.824;2023-02-15T14:58:18;102330.0;;;14.6;61.0
56594;BME280;42474;51.660;5.824;2023-02-15T15:03:23;102340.0;;;14.5;61.0
56594;BME280;42474;51.660;5.824;2023-02-15T15:08:26;102340.0;;;14.5;60.5
56594;BME280;42474;51.660;5.824;2023-02-15T15:13:58;102350.0;;;14.4;60.5
56594;BME280;42474;51.660;5.824;2023-02-15T15:18:47;102350.0;;;14.4;60.5
56594;BME280;42474;51.660;5.824;2023-02-15T15:23:44;102350.0;;;14.3;60.5
56594;BME280;42474;51.660;5.824;2023-02-15T15:29:00;102350.0;;;14.2;61.0
56594;BME280;42474;51.660;5.824;2023-02-15T15:34:01;102340.0;;;14.1;61.0
56594;BME280;42474;51.660;5.824;2023-02-15T15:41:28;102340.0;;;14.0;60.5
56594;BME280;42474;51.660;5.824;2023-02-15T15:48:18;102330.0;;;13.8;61.0
56594;BME280;42474;51.660;5.824;2023-02-15T15:48:46;102320.0;;;13.7;60.5
56594;BME280;42474;51.660;5.824;2023-02-15T15:53:22;102330.0;;;13.6;60.5
56594;BME280;42474;51.660;5.824;2023-02-15T15:58:19;102330.0;;;13.5;60.5
56594;BME280;42474;51.660;5.824;2023-02-15T16:03:20;102330.0;;;13.3;60.5
56594;BME280;42474;51.660;5.824;2023-02-15T16:08:25;102320.0;;;13.1;60.0
56594;BME280;42474;51.660;5.824;2023-02-15T16:13:18;102320.0;;;12.9;60.0
56594;BME280;42474;51.660;5.824;2023-02-15T16:18:20;102330.0;;;12.8;60.5
56594;BME280;42474;51.660;5.824;2023-02-15T16:23:26;102340.0;;;12.6;60.5
56594;BME280;42474;51.660;5.824;2023-02-15T16:28:18;102320.0;;;12.5;60.5
56594;BME280;42474;51.660;5.824;2023-02-15T16:33:18;102320.0;;;12.3;60.5
56594;BME280;42474;51.660;5.824;2023-02-15T16:38:21;102320.0;;;12.2;60.5
56594;BME280;42474;51.660;5.824;2023-02-15T16:43:24;102330.0;;;12.0;60.5
56594;BME280;42474;51.660;5.824;2023-02-15T16:48:26;102330.0;;;11.9;61.0
56594;BME280;42474;51.660;5.824;2023-02-15T16:53:26;102340.0;;;11.8;61.0
56594;BME280;42474;51.660;5.824;2023-02-15T16:58:28;102340.0;;;11.6;61.0
56594;BME280;42474;51.660;5.824;2023-02-15T17:03:24;102350.0;;;11.5;61.0
56594;BME280;42474;51.660;5.824;2023-02-15T17:08:26;102350.0;;;11.4;61.5
56594;BME280;42474;51.660;5.824;2023-02-15T17:13:18;102360.0;;;11.2;61.5
56594;BME280;42474;51.660;5.824;2023-02-15T17:18:22;102350.0;;;11.1;62.0
56594;BME280;42474;51.660;5.824;2023-02-15T17:23:22;102360.0;;;11.0;62.0
56594;BME280;42474;51.660;5.824;2023-02-15T17:28:23;102360.0;;;10.9;62.0
56594;BME280;42474;51.660;5.824;2023-02-15T17:38:20;102360.0;;;10.8;62.5
56594;BME280;42474;51.660;5.824;2023-02-15T17:43:18;102350.0;;;10.6;63.0
56594;BME280;42474;51.660;5.824;2023-02-15T17:48:28;102360.0;;;10.5;63.0
56594;BME280;42474;51.660;5.824;2023-02-15T17:53:18;102360.0;;;10.4;63.0
56594;BME280;42474;51.660;5.824;2023-02-15T17:58:19;102350.0;;;10.3;63.5
56594;BME280;42474;51.660;5.824;2023-02-15T18:03:18;102350.0;;;10.2;63.5
56594;BME280;42474;51.660;5.824;2023-02-15T18:08:22;102360.0;;;10.1;63.5
56594;BME280;42474;51.660;5.824;2023-02-15T18:13:18;102360.0;;;9.9;64.0
56594;BME280;42474;51.660;5.824;2023-02-15T18:18:19;102350.0;;;9.8;64.0
56594;BME280;42474;51.660;5.824;2023-02-15T18:23:18;102360.0;;;9.7;64.0
56594;BME280;42474;51.660;5.824;2023-02-15T18:28:18;102360.0;;;9.6;64.5
56594;BME280;42474;51.660;5.824;2023-02-15T18:33:34;102370.0;;;9.5;64.5
56594;BME280;42474;51.660;5.824;2023-02-15T18:38:18;102380.0;;;9.5;65.0
56594;BME280;42474;51.660;5.824;2023-02-15T18:43:18;102380.0;;;9.4;65.0
56594;BME280;42474;51.660;5.824;2023-02-15T18:48:18;102380.0;;;9.4;65.0
56594;BME280;42474;51.660;5.824;2023-02-15T18:53:19;102380.0;;;9.3;65.5
56594;BME280;42474;51.660;5.824;2023-02-15T18:58:20;102380.0;;;9.3;65.5
56594;BME280;42474;51.660;5.824;2023-02-15T19:03:18;102390.0;;;9.2;65.5
56594;BME280;42474;51.660;5.824;2023-02-15T19:08:21;102370.0;;;9.1;65.5
56594;BME280;42474;51.660;5.824;2023-02-15T19:13:18;102380.0;;;9.1;66.0
56594;BME280;42474;51.660;5.824;2023-02-15T19:18:18;102370.0;;;9.0;66.0
56594;BME280;42474;51.660;5.824;2023-02-15T19:23:21;102390.0;;;9.0;66.0
56594;BME280;42474;51.660;5.824;2023-02-15T19:28:24;102390.0;;;8.9;66.0
56594;BME280;42474;51.660;5.824;2023-02-15T19:33:19;102390.0;;;8.9;66.0
56594;BME280;42474;51.660;5.824;2023-02-15T19:38:23;102380.0;;;8.9;66.5
56594;BME280;42474;51.660;5.824;2023-02-15T19:43:21;102380.0;;;8.8;66.5
56594;BME280;42474;51.660;5.824;2023-02-15T19:48:18;102400.0;;;8.8;67.0
56594;BME280;42474;51.660;5.824;2023-02-15T19:53:20;102380.0;;;8.8;67.0
56594;BME280;42474;51.660;5.824;2023-02-15T19:58:19;102390.0;;;8.7;67.0
56594;BME280;42474;51.660;5.824;2023-02-15T20:03:18;102390.0;;;8.7;67.0
56594;BME280;42474;51.660;5.824;2023-02-15T20:08:21;102380.0;;;8.7;67.5
56594;BME280;42474;51.660;5.824;2023-02-15T20:13:19;102380.0;;;8.6;67.5
56594;BME280;42474;51.660;5.824;2023-02-15T20:18:18;102370.0;;;8.6;67.5
56594;BME280;42474;51.660;5.824;2023-02-15T20:23:25;102370.0;;;8.6;67.5
56594;BME280;42474;51.660;5.824;2023-02-15T20:28:21;102380.0;;;8.5;68.0
56594;BME280;42474;51.660;5.824;2023-02-15T20:33:21;102390.0;;;8.4;68.0
56594;BME280;42474;51.660;5.824;2023-02-15T20:38:20;102380.0;;;8.4;68.0
56594;BME280;42474;51.660;5.824;2023-02-15T20:43:18;102390.0;;;8.4;68.5
56594;BME280;42474;51.660;5.824;2023-02-15T20:48:19;102390.0;;;8.4;68.5
56594;BME280;42474;51.660;5.824;2023-02-15T20:53:19;102400.0;;;8.3;68.5
56594;BME280;42474;51.660;5.824;2023-02-15T20:58:28;102400.0;;;8.3;68.5
56594;BME280;42474;51.660;5.824;2023-02-15T21:03:24;102390.0;;;8.2;69.0
56594;BME280;42474;51.660;5.824;2023-02-15T21:08:21;102390.0;;;8.2;69.0
56594;BME280;42474;51.660;5.824;2023-02-15T21:13:21;102390.0;;;8.2;69.0
56594;BME280;42474;51.660;5.824;2023-02-15T21:18:22;102370.0;;;8.2;69.0
56594;BME280;42474;51.660;5.824;2023-02-15T21:23:21;102370.0;;;8.2;69.0
56594;BME280;42474;51.660;5.824;2023-02-15T21:28:23;102380.0;;;8.1;69.5
56594;BME280;42474;51.660;5.824;2023-02-15T21:33:19;102390.0;;;8.1;69.5
56594;BME280;42474;51.660;5.824;2023-02-15T21:38:24;102380.0;;;8.1;69.5
56594;BME280;42474;51.660;5.824;2023-02-15T21:43:22;102380.0;;;8.1;70.0
56594;BME280;42474;51.660;5.824;2023-02-15T21:48:18;102390.0;;;8.1;70.0
56594;BME280;42474;51.660;5.824;2023-02-15T21:53:20;102370.0;;;8.1;70.0
56594;BME280;42474;51.660;5.824;2023-02-15T21:58:20;102360.0;;;8.1;70.0
56594;BME280;42474;51.660;5.824;2023-02-15T22:03:19;102360.0;;;8.1;70.0
56594;BME280;42474;51.660;5.824;2023-02-15T22:08:19;102370.0;;;8.0;70.0
56594;BME280;42474;51.660;5.824;2023-02-15T22:13:25;102370.0;;;8.0;70.0
56594;BME280;42474;51.660;5.824;2023-02-15T22:18:21;102370.0;;;7.9;70.5
56594;BME280;42474;51.660;5.824;2023-02-15T22:23:19;102380.0;;;7.8;70.5
56594;BME280;42474;51.660;5.824;2023-02-15T22:28:22;102380.0;;;7.8;70.5
56594;BME280;42474;51.660;5.824;2023-02-15T22:33:20;102380.0;;;7.7;70.5
56594;BME280;42474;51.660;5.824;2023-02-15T22:38:19;102370.0;;;7.6;70.5
56594;BME280;42474;51.660;5.824;2023-02-15T22:43:21;102380.0;;;7.5;71.0
56594;BME280;42474;51.660;5.824;2023-02-15T22:48:20;102370.0;;;7.5;71.0
56594;BME280;42474;51.660;5.824;2023-02-15T22:53:19;102360.0;;;7.4;71.0
56594;BME280;42474;51.660;5.824;2023-02-15T22:58:25;102380.0;;;7.3;70.5
56594;BME280;42474;51.660;5.824;2023-02-15T23:03:20;102360.0;;;7.2;71.5
56594;BME280;42474;51.660;5.824;2023-02-15T23:08:19;102360.0;;;7.1;71.5
56594;BME280;42474;51.660;5.824;2023-02-15T23:13:21;102370.0;;;7.1;71.5
56594;BME280;42474;51.660;5.824;2023-02-15T23:18:26;102370.0;;;7.0;71.5
56594;BME280;42474;51.660;5.824;2023-02-15T23:23:23;102370.0;;;7.0;72.0
56594;BME280;42474;51.660;5.824;2023-02-15T23:28:23;102370.0;;;6.9;72.0
56594;BME280;42474;51.660;5.824;2023-02-15T23:33:21;102370.0;;;6.8;72.0
56594;BME280;42474;51.660;5.824;2023-02-15T23:38:20;102370.0;;;6.8;72.5
56594;BME280;42474;51.660;5.824;2023-02-15T23:43:21;102380.0;;;6.8;72.5
56594;BME280;42474;51.660;5.824;2023-02-15T23:48:21;102380.0;;;6.8;72.5
56594;BME280;42474;51.660;5.824;2023-02-15T23:53:19;102380.0;;;6.7;73.0
56594;BME280;42474;51.660;5.824;2023-02-15T23:58:22;102370.0;;;6.7;72.5
